createdAt,value
2022-12-23T00:01:05.119Z,100195.38
2022-12-23T00:03:34.021Z,100195.19
2022-12-23T00:06:02.390Z,100191.19
2022-12-23T00:08:31.649Z,100188.00
2022-12-23T00:10:59.584Z,100190.31
2022-12-23T00:13:45.137Z,100194.28
2022-12-23T00:16:15.298Z,100187.88
2022-12-23T00:18:43.916Z,100177.66
2022-12-23T00:21:13.780Z,100178.34
2022-12-23T00:23:44.514Z,100173.09
2022-12-23T00:26:16.373Z,100172.34
2022-12-23T00:28:44.324Z,100160.09
2022-12-23T00:31:13.556Z,100163.00
2022-12-23T00:33:43.160Z,100164.66
2022-12-23T00:36:16.469Z,100155.44
2022-12-23T00:39:03.270Z,100156.53
2022-12-23T00:41:48.692Z,100151.56
2022-12-23T00:44:16.726Z,100150.28
2022-12-23T00:46:44.583Z,100137.09
2022-12-23T00:49:31.474Z,100151.06
2022-12-23T00:51:59.811Z,100152.28
2022-12-23T00:54:29.375Z,100147.91
2022-12-23T00:56:57.195Z,100134.78
2022-12-23T00:59:25.059Z,100138.34
2022-12-23T01:02:10.450Z,100137.88
2022-12-23T01:04:56.211Z,100145.13
2022-12-23T01:07:25.063Z,100140.47
2022-12-23T01:09:54.293Z,100141.81
2022-12-23T01:12:22.463Z,100137.06
2022-12-23T01:14:50.342Z,100131.22
2022-12-23T01:17:18.307Z,100128.63
2022-12-23T01:19:46.206Z,100128.78
2022-12-23T01:22:14.093Z,100134.94
2022-12-23T01:24:41.965Z,100134.69
2022-12-23T01:27:11.178Z,100129.88
2022-12-23T01:29:39.011Z,100125.06
2022-12-23T01:32:06.963Z,100126.75
2022-12-23T01:34:37.403Z,100125.94
2022-12-23T01:37:05.839Z,100121.22
2022-12-23T01:39:33.823Z,100122.38
2022-12-23T01:42:19.227Z,100119.75
2022-12-23T01:44:56.471Z,100114.47
2022-12-23T01:47:30.651Z,100118.97
2022-12-23T01:50:04.012Z,100112.00
2022-12-23T01:52:32.799Z,100116.84
2022-12-23T01:55:00.733Z,100107.69
2022-12-23T01:57:29.790Z,100107.22
2022-12-23T02:00:16.575Z,100104.41
2022-12-23T02:03:03.927Z,100100.59
2022-12-23T02:05:32.014Z,100105.09
2022-12-23T02:08:17.446Z,100090.69
2022-12-23T02:11:20.314Z,100089.78
2022-12-23T02:14:14.815Z,100103.44
2022-12-23T02:16:53.315Z,100103.44
2022-12-23T02:19:40.757Z,100087.38
2022-12-23T02:22:34.538Z,100085.25
2022-12-23T02:25:30.279Z,100085.31
2022-12-23T02:28:18.127Z,100085.97
2022-12-23T02:30:53.059Z,100080.59
2022-12-23T02:33:36.323Z,100074.50
2022-12-23T02:36:11.037Z,100072.66
2022-12-23T02:38:49.366Z,100074.16
2022-12-23T02:41:24.024Z,100076.56
2022-12-23T02:43:58.502Z,100065.94
2022-12-23T02:46:33.887Z,100062.69
2022-12-23T02:49:08.930Z,100054.19
2022-12-23T02:51:41.452Z,100056.13
2022-12-23T02:54:12.541Z,100046.81
2022-12-23T02:56:46.394Z,100043.09
2022-12-23T02:59:17.703Z,100039.31
2022-12-23T03:01:48.519Z,100041.88
2022-12-23T03:04:16.596Z,100037.03
2022-12-23T03:06:47.182Z,100038.44
2022-12-23T03:09:23.813Z,100030.50
2022-12-23T03:11:59.668Z,100027.50
2022-12-23T03:14:45.348Z,100020.53
2022-12-23T03:17:31.707Z,100029.06
2022-12-23T03:20:10.172Z,100023.38
2022-12-23T03:22:44.346Z,100024.47
2022-12-23T03:25:19.553Z,100031.75
2022-12-23T03:27:54.753Z,100028.50
2022-12-23T03:30:24.708Z,100033.53
2022-12-23T03:32:58.221Z,100028.22
2022-12-23T03:35:31.034Z,100030.00
2022-12-23T03:38:00.303Z,100034.78
2022-12-23T03:40:31.812Z,100026.97
2022-12-23T03:43:10.213Z,100018.47
2022-12-23T03:45:44.026Z,100011.44
2022-12-23T03:48:21.843Z,100003.19
2022-12-23T03:50:53.590Z,100008.34
2022-12-23T03:53:26.975Z,100007.91
2022-12-23T03:56:00.618Z,100003.13
2022-12-23T03:58:35.960Z,100010.47
2022-12-23T04:01:11.539Z,99996.78
2022-12-23T04:03:50.197Z,100000.31
2022-12-23T04:06:20.855Z,100001.50
2022-12-23T04:08:50.391Z,100001.78
2022-12-23T04:11:18.456Z,99999.19
2022-12-23T04:13:48.496Z,99995.63
2022-12-23T04:16:17.056Z,100002.59
2022-12-23T04:18:46.362Z,99993.59
2022-12-23T04:21:14.161Z,99985.75
2022-12-23T04:23:42.005Z,99992.16
2022-12-23T04:26:09.838Z,99982.38
2022-12-23T04:28:37.686Z,99989.59
2022-12-23T04:31:05.836Z,99997.34
2022-12-23T04:33:33.724Z,99990.81
2022-12-23T04:36:02.965Z,99989.97
2022-12-23T04:38:30.873Z,99988.00
2022-12-23T04:40:58.690Z,99991.78
2022-12-23T04:43:26.713Z,99987.16
2022-12-23T04:45:54.587Z,99981.69
2022-12-23T04:48:22.443Z,99976.28
2022-12-23T04:50:50.291Z,99977.66
2022-12-23T04:53:19.559Z,99975.28
2022-12-23T04:55:51.322Z,99977.19
2022-12-23T04:58:21.950Z,99977.81
2022-12-23T05:00:49.889Z,99983.34
2022-12-23T05:03:18.135Z,99985.63
2022-12-23T05:05:46.304Z,99988.69
2022-12-23T05:08:14.157Z,99979.03
2022-12-23T05:10:43.368Z,99981.13
2022-12-23T05:13:11.243Z,99985.09
2022-12-23T05:15:39.117Z,99986.31
2022-12-23T05:18:07.024Z,99991.81
2022-12-23T05:20:34.893Z,99986.00
2022-12-23T05:23:02.740Z,99995.16
2022-12-23T05:25:30.640Z,99987.25
2022-12-23T05:27:59.825Z,99987.88
2022-12-23T05:30:27.725Z,99974.97
2022-12-23T05:32:56.364Z,99978.00
2022-12-23T05:35:25.028Z,99978.34
2022-12-23T05:37:53.435Z,99971.91
2022-12-23T05:40:25.537Z,99976.66
2022-12-23T05:42:57.200Z,99979.78
2022-12-23T05:45:26.499Z,99981.47
2022-12-23T05:47:54.370Z,99981.06
2022-12-23T05:50:22.236Z,99986.28
2022-12-23T05:52:50.303Z,99977.84
2022-12-23T05:55:18.223Z,99985.63
2022-12-23T05:57:46.117Z,99983.19
2022-12-23T06:00:15.288Z,99982.50
2022-12-23T06:02:49.974Z,99984.88
2022-12-23T06:05:21.315Z,99986.69
2022-12-23T06:07:49.244Z,99991.78
2022-12-23T06:10:17.192Z,99992.22
2022-12-23T06:12:45.052Z,99994.75
2022-12-23T06:15:12.944Z,99996.59
2022-12-23T06:17:40.790Z,100002.00
2022-12-23T06:20:19.647Z,99999.78
2022-12-23T06:22:48.448Z,100007.84
2022-12-23T06:25:16.462Z,100011.91
2022-12-23T06:27:44.302Z,100016.97
2022-12-23T06:30:12.543Z,100018.31
2022-12-23T06:32:40.816Z,100017.69
2022-12-23T06:35:11.243Z,100017.56
2022-12-23T06:37:39.272Z,100018.69
2022-12-23T06:40:08.692Z,100028.09
2022-12-23T06:42:36.518Z,100026.00
2022-12-23T06:45:05.244Z,100038.63
2022-12-23T06:47:33.077Z,100047.16
2022-12-23T06:50:00.933Z,100049.41
2022-12-23T06:52:30.227Z,100050.81
2022-12-23T06:54:58.102Z,100052.50
2022-12-23T06:57:26.036Z,100049.09
2022-12-23T06:59:53.912Z,100055.00
2022-12-23T07:02:21.993Z,100063.34
2022-12-23T07:04:50.031Z,100074.16
2022-12-23T07:07:17.911Z,100074.44
2022-12-23T07:09:47.186Z,100069.13
2022-12-23T07:12:15.095Z,100074.03
2022-12-23T07:14:43.010Z,100075.19
2022-12-23T07:17:10.895Z,100076.44
2022-12-23T07:19:38.821Z,100080.66
2022-12-23T07:22:06.655Z,100080.38
2022-12-23T07:24:34.574Z,100078.41
2022-12-23T07:27:03.910Z,100081.63
2022-12-23T07:29:31.760Z,100084.00
2022-12-23T07:31:59.748Z,100083.03
2022-12-23T07:34:27.645Z,100079.56
2022-12-23T07:36:56.422Z,100076.44
2022-12-23T07:39:24.371Z,100086.88
2022-12-23T07:42:08.978Z,100084.09
2022-12-23T07:44:41.651Z,100088.66
2022-12-23T07:47:09.541Z,100082.34
2022-12-23T07:49:37.414Z,100086.28
2022-12-23T07:52:05.798Z,100098.03
2022-12-23T07:54:33.730Z,100097.97
2022-12-23T07:57:01.692Z,100089.09
2022-12-23T07:59:29.617Z,100096.97
2022-12-23T08:01:59.029Z,100101.91
2022-12-23T08:04:27.187Z,100108.22
2022-12-23T08:06:55.168Z,100106.22
2022-12-23T08:09:23.079Z,100106.81
2022-12-23T08:11:50.969Z,100107.91
2022-12-23T08:14:18.870Z,100117.34
2022-12-23T08:16:46.742Z,100123.09
2022-12-23T08:19:16.110Z,100125.91
2022-12-23T08:21:44.094Z,100125.31
2022-12-23T08:24:12.058Z,100131.25
2022-12-23T08:26:39.993Z,100129.06
2022-12-23T08:29:07.956Z,100129.66
2022-12-23T08:31:36.042Z,100129.34
2022-12-23T08:34:03.972Z,100132.44
2022-12-23T08:36:35.419Z,100125.38
2022-12-23T08:39:07.379Z,100128.31
2022-12-23T08:41:38.009Z,100124.59
2022-12-23T08:44:06.121Z,100119.41
2022-12-23T08:46:34.807Z,100134.94
2022-12-23T08:49:02.820Z,100137.53
2022-12-23T08:51:30.808Z,100136.94
2022-12-23T08:54:01.775Z,100149.63
2022-12-23T08:56:32.349Z,100136.97
2022-12-23T08:59:00.533Z,100147.13
2022-12-23T09:01:31.243Z,100149.34
2022-12-23T09:03:59.839Z,100143.03
2022-12-23T09:06:32.912Z,100159.69
2022-12-23T09:09:02.212Z,100166.72
2022-12-23T09:11:30.812Z,100171.72
2022-12-23T09:14:01.120Z,100163.34
2022-12-23T09:16:29.739Z,100176.63
2022-12-23T09:18:57.959Z,100176.63
2022-12-23T09:21:26.325Z,100181.28
2022-12-23T09:23:54.436Z,100191.13
2022-12-23T09:26:25.721Z,100182.59
2022-12-23T09:28:54.545Z,100189.22
2022-12-23T09:31:23.450Z,100198.75
2022-12-23T09:33:53.389Z,100202.19
2022-12-23T09:36:22.258Z,100216.88
2022-12-23T09:38:55.225Z,100228.50
2022-12-23T09:41:53.428Z,100225.44
2022-12-23T09:44:44.550Z,100228.81
2022-12-23T09:47:16.865Z,100226.94
2022-12-23T09:49:50.045Z,100234.13
2022-12-23T09:52:25.123Z,100228.75
2022-12-23T09:54:55.214Z,100231.56
2022-12-23T09:57:35.282Z,100242.56
2022-12-23T10:00:07.706Z,100235.00
2022-12-23T10:02:53.632Z,100243.31
2022-12-23T10:05:30.689Z,100256.31
2022-12-23T10:08:03.343Z,100252.75
2022-12-23T10:10:38.144Z,100248.13
2022-12-23T10:13:12.328Z,100253.25
2022-12-23T10:15:44.236Z,100256.69
2022-12-23T10:18:18.397Z,100247.69
2022-12-23T10:20:52.050Z,100237.91
2022-12-23T10:23:28.685Z,100258.72
2022-12-23T10:25:56.720Z,100251.19
2022-12-23T10:28:29.536Z,100255.72
2022-12-23T10:33:59.952Z,100238.53
2022-12-23T10:36:38.172Z,100232.13
2022-12-23T10:39:15.137Z,100231.56
2022-12-23T10:41:49.819Z,100230.19
2022-12-23T10:44:43.860Z,100226.81
2022-12-23T10:47:20.832Z,100220.59
2022-12-23T10:49:59.948Z,100234.69
2022-12-23T10:52:33.459Z,100226.34
2022-12-23T10:55:01.367Z,100229.16
2022-12-23T10:57:31.182Z,100246.47
2022-12-23T11:00:00.411Z,100233.44
2022-12-23T11:02:46.359Z,100232.75
2022-12-23T11:05:17.120Z,100238.56
2022-12-23T11:07:47.032Z,100242.34
2022-12-23T11:10:19.621Z,100245.44
2022-12-23T11:12:49.926Z,100246.06
2022-12-23T11:15:32.793Z,100244.97
2022-12-23T11:18:03.089Z,100250.75
2022-12-23T11:20:31.191Z,100246.53
2022-12-23T11:23:02.139Z,100246.97
2022-12-23T11:25:38.579Z,100254.78
2022-12-23T11:28:13.687Z,100254.94
2022-12-23T11:30:56.698Z,100246.22
2022-12-23T11:33:27.684Z,100251.72
2022-12-23T11:36:04.343Z,100246.28
2022-12-23T11:38:33.371Z,100258.75
2022-12-23T11:41:01.305Z,100258.16
2022-12-23T11:43:29.948Z,100259.94
2022-12-23T11:46:26.295Z,100256.53
2022-12-23T11:49:07.487Z,100264.91
2022-12-23T11:51:35.420Z,100273.50
2022-12-23T11:54:03.855Z,100279.34
2022-12-23T11:56:37.304Z,100274.28
2022-12-23T11:59:08.864Z,100284.72
2022-12-23T12:01:39.603Z,100278.13
2022-12-23T12:04:10.328Z,100286.69
2022-12-23T12:06:47.302Z,100288.09
2022-12-23T12:09:20.057Z,100302.53
2022-12-23T12:11:51.153Z,100300.72
2022-12-23T12:14:23.934Z,100302.13
2022-12-23T12:16:59.589Z,100306.31
2022-12-23T12:19:32.817Z,100305.22
2022-12-23T12:22:04.585Z,100301.69
2022-12-23T12:24:39.751Z,100302.84
2022-12-23T12:27:11.320Z,100299.34
2022-12-23T12:29:45.638Z,100287.44
2022-12-23T12:32:22.306Z,100283.09
2022-12-23T12:34:54.406Z,100294.63
2022-12-23T12:37:30.899Z,100293.25
2022-12-23T12:40:03.649Z,100281.00
2022-12-23T12:42:40.244Z,100279.66
2022-12-23T12:45:17.677Z,100287.03
2022-12-23T12:48:07.029Z,100281.78
2022-12-23T12:50:45.345Z,100279.06
2022-12-23T12:53:16.988Z,100280.25
2022-12-23T12:55:51.857Z,100275.03
2022-12-23T12:58:22.584Z,100271.66
2022-12-23T13:01:01.113Z,100272.75
2022-12-23T13:03:58.340Z,100271.78
2022-12-23T13:06:33.409Z,100279.69
2022-12-23T13:09:09.655Z,100282.22
2022-12-23T13:11:45.075Z,100277.97
2022-12-23T13:14:28.250Z,100275.28
2022-12-23T13:17:05.945Z,100270.44
2022-12-23T13:19:42.562Z,100281.09
2022-12-23T13:22:14.208Z,100264.75
2022-12-23T13:24:56.806Z,100260.69
2022-12-23T13:27:32.739Z,100261.09
2022-12-23T13:30:06.562Z,100257.69
2022-12-23T13:33:10.438Z,100245.91
2022-12-23T13:36:06.389Z,100228.63
2022-12-23T13:38:46.665Z,100239.75
2022-12-23T13:41:27.166Z,100240.28
2022-12-23T13:43:57.772Z,100238.03
2022-12-23T13:46:36.303Z,100237.63
2022-12-23T13:49:11.348Z,100241.50
2022-12-23T13:51:47.554Z,100241.50
2022-12-23T13:54:24.544Z,100250.72
2022-12-23T13:57:00.956Z,100246.47
2022-12-23T13:59:40.411Z,100247.69
2022-12-23T14:02:39.623Z,100246.38
2022-12-23T14:05:27.585Z,100238.06
2022-12-23T14:07:57.388Z,100248.97
2022-12-23T14:10:26.643Z,100250.91
2022-12-23T14:13:01.389Z,100239.25
2022-12-23T14:15:53.161Z,100244.72
2022-12-23T14:18:40.320Z,100248.06
2022-12-23T14:21:17.523Z,100243.03
2022-12-23T14:24:04.828Z,100242.84
2022-12-23T14:27:05.134Z,100249.50
2022-12-23T14:29:45.375Z,100246.56
2022-12-23T14:32:22.117Z,100250.56
2022-12-23T14:35:18.370Z,100253.97
2022-12-23T14:38:24.313Z,100254.44
2022-12-23T14:41:18.935Z,100251.97
2022-12-23T14:43:58.082Z,100251.78
2022-12-23T14:46:59.407Z,100253.28
2022-12-23T14:49:43.923Z,100261.50
2022-12-23T14:52:47.996Z,100262.47
2022-12-23T14:55:54.314Z,100260.34
2022-12-23T14:58:59.339Z,100262.03
2022-12-23T15:01:32.803Z,100267.69
2022-12-23T15:04:08.180Z,100268.75
2022-12-23T15:06:39.183Z,100275.22
2022-12-23T15:09:08.479Z,100272.09
2022-12-23T15:11:37.791Z,100268.50
2022-12-23T15:14:15.577Z,100260.16
2022-12-23T15:16:45.163Z,100261.28
2022-12-23T15:19:23.538Z,100261.75
2022-12-23T15:22:01.990Z,100263.44
2022-12-23T15:24:33.485Z,100257.84
2022-12-23T15:27:25.790Z,100258.94
2022-12-23T15:29:52.841Z,100266.94
2022-12-23T15:32:23.205Z,100265.69
2022-12-23T15:34:53.305Z,100265.81
2022-12-23T15:37:27.628Z,100260.59
2022-12-23T15:40:03.459Z,100257.75
2022-12-23T15:42:35.538Z,100263.66
2022-12-23T15:45:31.243Z,100263.09
2022-12-23T15:47:59.439Z,100257.81
2022-12-23T15:50:28.337Z,100250.56
2022-12-23T15:53:00.206Z,100237.94
2022-12-23T15:55:32.127Z,100245.56
2022-12-23T15:58:01.671Z,100256.50
2022-12-23T16:00:39.659Z,100256.91
2022-12-23T16:03:13.790Z,100255.72
2022-12-23T16:05:44.904Z,100266.69
2022-12-23T16:08:29.111Z,100258.53
2022-12-23T16:11:06.284Z,100276.97
2022-12-23T16:13:34.606Z,100275.75
2022-12-23T16:16:34.122Z,100278.84
2022-12-23T16:19:02.092Z,100274.78
2022-12-23T16:21:33.138Z,100269.22
2022-12-23T16:24:02.243Z,100274.06
2022-12-23T16:26:30.137Z,100268.66
2022-12-23T16:29:01.804Z,100280.38
2022-12-23T16:31:31.173Z,100282.31
2022-12-23T16:34:00.282Z,100276.91
2022-12-23T16:36:34.977Z,100272.53
2022-12-23T16:39:22.691Z,100270.97
2022-12-23T16:41:51.125Z,100260.84
2022-12-23T16:44:19.003Z,100269.81
2022-12-23T16:46:50.643Z,100261.19
2022-12-23T16:49:20.446Z,100268.78
2022-12-23T16:51:49.146Z,100261.19
2022-12-23T16:54:19.242Z,100256.31
2022-12-23T16:56:47.874Z,100249.25
2022-12-23T16:59:16.124Z,100241.41
2022-12-23T17:01:46.654Z,100239.16
2022-12-23T17:04:16.355Z,100231.44
2022-12-23T17:06:46.519Z,100228.75
2022-12-23T17:09:14.636Z,100224.41
2022-12-23T17:11:44.809Z,100219.78
2022-12-23T17:14:17.743Z,100213.28
2022-12-23T17:16:46.126Z,100215.69
2022-12-23T17:19:14.181Z,100220.47
2022-12-23T17:21:45.547Z,100214.59
2022-12-23T17:24:18.017Z,100220.56
2022-12-23T17:26:45.886Z,100208.84
2022-12-23T17:29:14.299Z,100206.91
2022-12-23T17:31:43.250Z,100203.50
2022-12-23T17:34:16.472Z,100202.75
2022-12-23T17:36:50.059Z,100202.44
2022-12-23T17:39:18.490Z,100193.19
2022-12-23T17:41:46.588Z,100191.19
2022-12-23T17:44:15.562Z,100190.56
2022-12-23T17:46:44.030Z,100184.53
2022-12-23T17:49:12.471Z,100177.63
2022-12-23T17:51:41.268Z,100178.44
2022-12-23T17:54:24.362Z,100178.75
2022-12-23T17:56:53.138Z,100177.06
2022-12-23T17:59:21.353Z,100174.19
2022-12-23T18:01:49.451Z,100166.31
2022-12-23T18:04:17.420Z,100167.28
2022-12-23T18:06:45.329Z,100170.44
2022-12-23T18:09:14.509Z,100175.63
2022-12-23T18:11:45.228Z,100183.66
2022-12-23T18:14:17.279Z,100178.59
2022-12-23T18:16:45.319Z,100172.91
2022-12-23T18:19:18.145Z,100176.94
2022-12-23T18:21:46.587Z,100177.22
2022-12-23T18:24:15.845Z,100166.00
2022-12-23T18:26:43.742Z,100162.47
2022-12-23T18:29:11.689Z,100164.84
2022-12-23T18:31:51.185Z,100158.50
2022-12-23T18:34:20.461Z,100157.13
2022-12-23T18:36:51.498Z,100161.50
2022-12-23T18:39:21.666Z,100160.56
2022-12-23T18:41:49.534Z,100166.22
2022-12-23T18:44:19.572Z,100168.41
2022-12-23T18:46:47.943Z,100166.72
2022-12-23T18:49:15.887Z,100168.88
2022-12-23T18:51:43.756Z,100175.47
2022-12-23T18:54:15.241Z,100171.69
2022-12-23T18:56:44.493Z,100164.50
2022-12-23T18:59:17.052Z,100170.13
2022-12-23T19:01:45.395Z,100163.63
2022-12-23T19:04:13.608Z,100162.09
2022-12-23T19:06:41.933Z,100164.63
2022-12-23T19:09:17.143Z,100164.84
2022-12-23T19:11:47.586Z,100167.81
2022-12-23T19:14:15.506Z,100159.41
2022-12-23T19:16:49.239Z,100167.09
2022-12-23T19:19:19.304Z,100159.94
2022-12-23T19:21:47.380Z,100158.19
2022-12-23T19:24:15.228Z,100154.97
2022-12-23T19:26:43.116Z,100149.53
2022-12-23T19:29:12.389Z,100153.22
2022-12-23T19:31:40.667Z,100145.34
2022-12-23T19:34:14.676Z,100145.09
2022-12-23T19:36:43.613Z,100145.16
2022-12-23T19:39:16.092Z,100136.53
2022-12-23T19:41:44.605Z,100145.94
2022-12-23T19:44:13.868Z,100152.53
2022-12-23T19:46:41.796Z,100154.59
2022-12-23T19:49:14.061Z,100152.78
2022-12-23T19:51:45.653Z,100152.66
2022-12-23T19:54:13.494Z,100148.97
2022-12-23T19:56:41.497Z,100146.19
2022-12-23T19:59:09.335Z,100142.09
2022-12-23T20:01:38.682Z,100133.81
2022-12-23T20:04:06.613Z,100136.88
2022-12-23T20:06:38.230Z,100138.81
2022-12-23T20:09:07.052Z,100140.69
2022-12-23T20:11:36.879Z,100137.09
2022-12-23T20:14:06.270Z,100127.34
2022-12-23T20:16:35.212Z,100128.25
2022-12-23T20:19:05.210Z,100128.22
2022-12-23T20:21:33.961Z,100125.81
2022-12-23T20:24:01.888Z,100114.44
2022-12-23T20:26:30.062Z,100119.03
2022-12-23T20:28:58.459Z,100110.34
2022-12-23T20:31:28.560Z,100099.09
2022-12-23T20:33:57.638Z,100099.69
2022-12-23T20:36:28.552Z,100097.69
2022-12-23T20:38:57.098Z,100096.09
2022-12-23T20:41:27.772Z,100088.03
2022-12-23T20:46:43.689Z,100092.53
2022-12-23T20:49:11.616Z,100098.41
2022-12-23T20:51:40.850Z,100103.19
2022-12-23T20:54:09.282Z,100095.03
2022-12-23T20:56:37.328Z,100091.25
2022-12-23T20:59:05.207Z,100089.06
2022-12-23T21:01:36.162Z,100098.84
2022-12-23T21:04:06.585Z,100090.97
2022-12-23T21:06:35.660Z,100086.25
2022-12-23T21:09:06.808Z,100097.13
2022-12-23T21:11:36.226Z,100084.31
2022-12-23T21:14:07.135Z,100095.94
2022-12-23T21:16:36.578Z,100098.56
2022-12-23T21:19:05.364Z,100101.38
2022-12-23T21:21:33.309Z,100101.94
2022-12-23T21:24:04.480Z,100114.69
2022-12-23T21:26:36.280Z,100105.69
2022-12-23T21:29:07.446Z,100109.88
2022-12-23T21:31:37.704Z,100095.56
2022-12-23T21:34:06.459Z,100100.56
2022-12-23T21:36:36.993Z,100102.97
2022-12-23T21:39:06.197Z,100096.56
2022-12-23T21:41:38.146Z,100077.13
2022-12-23T21:44:06.530Z,100081.56
2022-12-23T21:46:34.850Z,100089.50
2022-12-23T21:49:02.817Z,100087.69
2022-12-23T21:51:38.938Z,100087.41
2022-12-23T21:54:08.415Z,100088.28
2022-12-23T21:56:37.718Z,100096.16
2022-12-23T21:59:07.637Z,100089.63
2022-12-23T22:01:36.177Z,100090.00
2022-12-23T22:04:04.402Z,100086.09
2022-12-23T22:06:35.837Z,100086.38
2022-12-23T22:09:05.730Z,100067.34
2022-12-23T22:11:36.302Z,100062.88
2022-12-23T22:14:07.635Z,100069.94
2022-12-23T22:16:36.432Z,100073.63
2022-12-23T22:19:06.364Z,100066.66
2022-12-23T22:21:35.867Z,100057.78
2022-12-23T22:24:04.471Z,100070.03
2022-12-23T22:26:33.633Z,100063.38
2022-12-23T22:29:03.365Z,100071.72
2022-12-23T22:31:37.394Z,100068.50
2022-12-23T22:34:06.230Z,100066.41
2022-12-23T22:36:34.699Z,100063.72
2022-12-23T22:39:03.525Z,100064.31
2022-12-23T22:41:32.500Z,100054.06
2022-12-23T22:44:00.663Z,100065.94
2022-12-23T22:46:29.463Z,100070.78
2022-12-23T22:48:59.761Z,100068.91
2022-12-23T22:51:29.697Z,100077.34
2022-12-23T22:53:57.705Z,100069.31
2022-12-23T22:56:26.688Z,100071.03
2022-12-23T22:58:55.385Z,100070.50
2022-12-23T23:01:25.257Z,100070.06
2022-12-23T23:03:57.287Z,100066.16
2022-12-23T23:06:30.186Z,100068.72
2022-12-23T23:08:58.274Z,100060.09
2022-12-23T23:11:27.876Z,100070.59
2022-12-23T23:13:56.464Z,100060.28
2022-12-23T23:16:24.828Z,100056.69
2022-12-23T23:18:53.896Z,100053.81
2022-12-23T23:21:22.451Z,100064.50
2022-12-23T23:23:51.996Z,100057.84
2022-12-23T23:26:21.225Z,100062.75
2022-12-23T23:28:49.312Z,100066.34
2022-12-23T23:31:41.084Z,100073.25
2022-12-23T23:34:05.091Z,100075.75
2022-12-23T23:36:33.353Z,100068.84
2022-12-23T23:39:02.675Z,100076.50
2022-12-23T23:41:30.588Z,100066.25
2022-12-23T23:43:58.526Z,100073.56
2022-12-23T23:46:26.483Z,100071.50
2022-12-23T23:48:54.452Z,100076.00
2022-12-23T23:51:22.326Z,100074.38
2022-12-23T23:53:50.179Z,100085.34
2022-12-23T23:56:25.050Z,100085.50
2022-12-23T23:58:53.881Z,100090.38
